sensor_id;sensor_type;location;lat;lon;timestamp;P1;durP1;ratioP1;P2;durP2;ratioP2
58992;SDS011;44782;0.000;0.000;2022-12-24T00:01:32;3.90;;;2.70;;
58992;SDS011;44782;0.000;0.000;2022-12-24T00:03:48;5.10;;;2.77;;
58992;SDS011;44782;0.000;0.000;2022-12-24T00:06:08;3.30;;;2.40;;
58992;SDS011;44782;0.000;0.000;2022-12-24T00:08:27;3.73;;;2.73;;
58992;SDS011;44782;0.000;0.000;2022-12-24T00:10:43;5.53;;;3.00;;
58992;SDS011;44782;0.000;0.000;2022-12-24T00:12:59;4.07;;;2.63;;
58992;SDS011;44782;0.000;0.000;2022-12-24T00:15:14;4.80;;;2.80;;
58992;SDS011;44782;0.000;0.000;2022-12-24T00:17:30;4.43;;;3.03;;
58992;SDS011;44782;0.000;0.000;2022-12-24T00:19:45;3.60;;;2.40;;
58992;SDS011;44782;0.000;0.000;2022-12-24T00:22:01;3.93;;;2.80;;
58992;SDS011;44782;0.000;0.000;2022-12-24T00:24:17;5.07;;;2.80;;
58992;SDS011;44782;0.000;0.000;2022-12-24T00:26:33;4.10;;;2.63;;
58992;SDS011;44782;0.000;0.000;2022-12-24T00:28:49;4.03;;;2.60;;
58992;SDS011;44782;0.000;0.000;2022-12-24T00:31:09;4.50;;;3.00;;
58992;SDS011;44782;0.000;0.000;2022-12-24T00:33:26;3.73;;;2.73;;
58992;SDS011;44782;0.000;0.000;2022-12-24T00:35:42;4.47;;;2.80;;
58992;SDS011;44782;0.000;0.000;2022-12-24T00:37:57;3.90;;;2.70;;
58992;SDS011;44782;0.000;0.000;2022-12-24T00:40:14;4.13;;;2.43;;
58992;SDS011;44782;0.000;0.000;2022-12-24T00:42:30;3.93;;;2.70;;
58992;SDS011;44782;0.000;0.000;2022-12-24T00:44:46;3.70;;;2.77;;
58992;SDS011;44782;0.000;0.000;2022-12-24T00:47:01;5.40;;;3.17;;
58992;SDS011;44782;0.000;0.000;2022-12-24T00:49:17;4.00;;;2.60;;
58992;SDS011;44782;0.000;0.000;2022-12-24T00:51:33;4.77;;;3.23;;
58992;SDS011;44782;0.000;0.000;2022-12-24T00:53:50;3.90;;;2.77;;
58992;SDS011;44782;0.000;0.000;2022-12-24T00:56:06;4.47;;;2.83;;
58992;SDS011;44782;0.000;0.000;2022-12-24T00:58:21;4.47;;;2.83;;
58992;SDS011;44782;0.000;0.000;2022-12-24T01:00:37;4.37;;;2.90;;
58992;SDS011;44782;0.000;0.000;2022-12-24T01:02:53;3.57;;;2.30;;
58992;SDS011;44782;0.000;0.000;2022-12-24T01:05:09;4.20;;;2.90;;
58992;SDS011;44782;0.000;0.000;2022-12-24T01:07:25;4.97;;;2.93;;
58992;SDS011;44782;0.000;0.000;2022-12-24T01:09:41;4.53;;;2.63;;
58992;SDS011;44782;0.000;0.000;2022-12-24T01:11:56;4.20;;;2.77;;
58992;SDS011;44782;0.000;0.000;2022-12-24T01:14:12;3.80;;;2.40;;
58992;SDS011;44782;0.000;0.000;2022-12-24T01:16:27;3.47;;;2.63;;
58992;SDS011;44782;0.000;0.000;2022-12-24T01:18:43;3.97;;;2.77;;
58992;SDS011;44782;0.000;0.000;2022-12-24T01:21:00;4.47;;;2.60;;
58992;SDS011;44782;0.000;0.000;2022-12-24T01:23:17;3.40;;;2.57;;
58992;SDS011;44782;0.000;0.000;2022-12-24T01:25:32;3.97;;;2.67;;
58992;SDS011;44782;0.000;0.000;2022-12-24T01:27:48;4.10;;;2.60;;
58992;SDS011;44782;0.000;0.000;2022-12-24T01:30:04;5.40;;;2.70;;
58992;SDS011;44782;0.000;0.000;2022-12-24T01:32:21;3.97;;;2.53;;
58992;SDS011;44782;0.000;0.000;2022-12-24T01:34:37;4.37;;;2.57;;
58992;SDS011;44782;0.000;0.000;2022-12-24T01:36:52;5.17;;;3.10;;
58992;SDS011;44782;0.000;0.000;2022-12-24T01:39:08;4.10;;;2.70;;
58992;SDS011;44782;0.000;0.000;2022-12-24T01:41:24;4.30;;;2.70;;
58992;SDS011;44782;0.000;0.000;2022-12-24T01:44:14;4.10;;;2.80;;
58992;SDS011;44782;0.000;0.000;2022-12-24T01:46:40;3.70;;;2.40;;
58992;SDS011;44782;0.000;0.000;2022-12-24T01:48:57;3.93;;;2.23;;
58992;SDS011;44782;0.000;0.000;2022-12-24T01:53:31;4.10;;;2.50;;
58992;SDS011;44782;0.000;0.000;2022-12-24T01:55:50;5.17;;;2.53;;
58992;SDS011;44782;0.000;0.000;2022-12-24T01:58:07;4.27;;;2.70;;
58992;SDS011;44782;0.000;0.000;2022-12-24T02:00:24;4.63;;;2.80;;
58992;SDS011;44782;0.000;0.000;2022-12-24T02:02:40;3.73;;;2.80;;
58992;SDS011;44782;0.000;0.000;2022-12-24T02:08:02;4.03;;;2.73;;
58992;SDS011;44782;0.000;0.000;2022-12-24T02:10:19;4.20;;;2.63;;
58992;SDS011;44782;0.000;0.000;2022-12-24T02:12:35;4.70;;;2.50;;
58992;SDS011;44782;0.000;0.000;2022-12-24T02:14:52;4.40;;;3.00;;
58992;SDS011;44782;0.000;0.000;2022-12-24T02:24:28;4.30;;;2.70;;
58992;SDS011;44782;0.000;0.000;2022-12-24T02:29:59;4.23;;;2.63;;
58992;SDS011;44782;0.000;0.000;2022-12-24T02:32:21;5.07;;;2.63;;
58992;SDS011;44782;0.000;0.000;2022-12-24T02:34:44;4.53;;;2.60;;
58992;SDS011;44782;0.000;0.000;2022-12-24T02:37:05;4.33;;;2.60;;
58992;SDS011;44782;0.000;0.000;2022-12-24T02:39:38;4.83;;;2.87;;
58992;SDS011;44782;0.000;0.000;2022-12-24T02:42:04;4.73;;;2.93;;
58992;SDS011;44782;0.000;0.000;2022-12-24T02:44:23;5.10;;;2.80;;
58992;SDS011;44782;0.000;0.000;2022-12-24T02:46:41;4.73;;;2.93;;
58992;SDS011;44782;0.000;0.000;2022-12-24T02:48:57;4.03;;;2.60;;
58992;SDS011;44782;0.000;0.000;2022-12-24T02:51:15;3.97;;;2.63;;
58992;SDS011;44782;0.000;0.000;2022-12-24T02:53:30;4.90;;;2.90;;
58992;SDS011;44782;0.000;0.000;2022-12-24T03:00:58;3.07;;;2.23;;
58992;SDS011;44782;0.000;0.000;2022-12-24T03:03:42;4.30;;;2.83;;
58992;SDS011;44782;0.000;0.000;2022-12-24T03:06:15;4.27;;;2.60;;
58992;SDS011;44782;0.000;0.000;2022-12-24T03:11:25;4.80;;;2.60;;
58992;SDS011;44782;0.000;0.000;2022-12-24T03:13:41;4.30;;;2.53;;
58992;SDS011;44782;0.000;0.000;2022-12-24T03:15:58;4.13;;;2.67;;
58992;SDS011;44782;0.000;0.000;2022-12-24T03:18:22;3.90;;;2.67;;
58992;SDS011;44782;0.000;0.000;2022-12-24T03:20:41;4.13;;;2.40;;
58992;SDS011;44782;0.000;0.000;2022-12-24T03:22:59;3.47;;;2.50;;
58992;SDS011;44782;0.000;0.000;2022-12-24T03:25:15;3.30;;;2.50;;
58992;SDS011;44782;0.000;0.000;2022-12-24T03:27:31;4.40;;;2.83;;
58992;SDS011;44782;0.000;0.000;2022-12-24T03:29:48;4.60;;;2.70;;
58992;SDS011;44782;0.000;0.000;2022-12-24T03:32:04;4.73;;;2.63;;
58992;SDS011;44782;0.000;0.000;2022-12-24T03:34:20;3.47;;;2.53;;
58992;SDS011;44782;0.000;0.000;2022-12-24T03:36:35;4.00;;;2.77;;
58992;SDS011;44782;0.000;0.000;2022-12-24T03:38:51;5.33;;;3.10;;
58992;SDS011;44782;0.000;0.000;2022-12-24T03:41:07;3.67;;;2.53;;
58992;SDS011;44782;0.000;0.000;2022-12-24T03:43:23;4.77;;;2.93;;
58992;SDS011;44782;0.000;0.000;2022-12-24T03:45:39;4.17;;;2.67;;
58992;SDS011;44782;0.000;0.000;2022-12-24T03:47:54;5.00;;;3.03;;
58992;SDS011;44782;0.000;0.000;2022-12-24T03:50:10;5.40;;;2.87;;
58992;SDS011;44782;0.000;0.000;2022-12-24T03:52:26;4.50;;;2.77;;
58992;SDS011;44782;0.000;0.000;2022-12-24T03:54:42;4.07;;;2.40;;
58992;SDS011;44782;0.000;0.000;2022-12-24T03:56:58;4.60;;;2.60;;
58992;SDS011;44782;0.000;0.000;2022-12-24T03:59:13;4.60;;;2.57;;
58992;SDS011;44782;0.000;0.000;2022-12-24T04:01:29;5.97;;;3.27;;
58992;SDS011;44782;0.000;0.000;2022-12-24T04:03:45;4.00;;;2.63;;
58992;SDS011;44782;0.000;0.000;2022-12-24T04:06:05;4.80;;;2.80;;
58992;SDS011;44782;0.000;0.000;2022-12-24T04:08:25;3.00;;;2.33;;
58992;SDS011;44782;0.000;0.000;2022-12-24T04:10:41;5.20;;;2.90;;
58992;SDS011;44782;0.000;0.000;2022-12-24T04:12:56;4.23;;;2.50;;
58992;SDS011;44782;0.000;0.000;2022-12-24T04:15:12;4.07;;;2.90;;
58992;SDS011;44782;0.000;0.000;2022-12-24T04:17:28;4.33;;;2.80;;
58992;SDS011;44782;0.000;0.000;2022-12-24T04:19:43;5.13;;;2.70;;
58992;SDS011;44782;0.000;0.000;2022-12-24T04:21:59;4.30;;;2.57;;
58992;SDS011;44782;0.000;0.000;2022-12-24T04:24:14;3.80;;;2.50;;
58992;SDS011;44782;0.000;0.000;2022-12-24T04:26:30;4.13;;;2.60;;
58992;SDS011;44782;0.000;0.000;2022-12-24T04:28:46;3.47;;;2.50;;
58992;SDS011;44782;0.000;0.000;2022-12-24T04:31:03;4.83;;;2.73;;
58992;SDS011;44782;0.000;0.000;2022-12-24T04:33:20;4.40;;;2.80;;
58992;SDS011;44782;0.000;0.000;2022-12-24T04:35:40;4.13;;;2.57;;
58992;SDS011;44782;0.000;0.000;2022-12-24T04:37:56;4.33;;;2.70;;
58992;SDS011;44782;0.000;0.000;2022-12-24T04:40:12;5.27;;;2.90;;
58992;SDS011;44782;0.000;0.000;2022-12-24T04:42:28;3.83;;;2.40;;
58992;SDS011;44782;0.000;0.000;2022-12-24T04:44:43;4.80;;;2.70;;
58992;SDS011;44782;0.000;0.000;2022-12-24T04:46:59;4.17;;;2.67;;
58992;SDS011;44782;0.000;0.000;2022-12-24T04:49:15;4.93;;;2.90;;
58992;SDS011;44782;0.000;0.000;2022-12-24T04:51:31;4.37;;;2.63;;
58992;SDS011;44782;0.000;0.000;2022-12-24T04:53:46;4.00;;;2.70;;
58992;SDS011;44782;0.000;0.000;2022-12-24T04:56:02;3.60;;;2.30;;
58992;SDS011;44782;0.000;0.000;2022-12-24T04:58:21;4.23;;;2.73;;
58992;SDS011;44782;0.000;0.000;2022-12-24T05:00:37;4.20;;;2.67;;
58992;SDS011;44782;0.000;0.000;2022-12-24T05:02:53;3.97;;;2.70;;
58992;SDS011;44782;0.000;0.000;2022-12-24T05:05:09;4.33;;;2.70;;
58992;SDS011;44782;0.000;0.000;2022-12-24T05:07:24;3.97;;;2.43;;
58992;SDS011;44782;0.000;0.000;2022-12-24T05:09:40;5.13;;;2.93;;
58992;SDS011;44782;0.000;0.000;2022-12-24T05:11:56;3.67;;;2.40;;
58992;SDS011;44782;0.000;0.000;2022-12-24T05:14:11;4.50;;;2.93;;
58992;SDS011;44782;0.000;0.000;2022-12-24T05:16:27;5.00;;;2.70;;
58992;SDS011;44782;0.000;0.000;2022-12-24T05:18:43;4.20;;;2.50;;
58992;SDS011;44782;0.000;0.000;2022-12-24T05:20:58;4.50;;;2.90;;
58992;SDS011;44782;0.000;0.000;2022-12-24T05:23:15;3.67;;;2.33;;
58992;SDS011;44782;0.000;0.000;2022-12-24T05:25:54;4.50;;;2.60;;
58992;SDS011;44782;0.000;0.000;2022-12-24T05:28:29;3.90;;;2.60;;
58992;SDS011;44782;0.000;0.000;2022-12-24T05:30:45;4.03;;;2.80;;
58992;SDS011;44782;0.000;0.000;2022-12-24T05:33:00;4.43;;;2.43;;
58992;SDS011;44782;0.000;0.000;2022-12-24T05:35:19;4.87;;;2.70;;
58992;SDS011;44782;0.000;0.000;2022-12-24T05:37:34;3.83;;;2.43;;
58992;SDS011;44782;0.000;0.000;2022-12-24T05:39:50;4.03;;;2.47;;
58992;SDS011;44782;0.000;0.000;2022-12-24T05:42:06;5.33;;;2.77;;
58992;SDS011;44782;0.000;0.000;2022-12-24T05:44:22;4.23;;;2.70;;
58992;SDS011;44782;0.000;0.000;2022-12-24T05:46:37;4.87;;;2.63;;
58992;SDS011;44782;0.000;0.000;2022-12-24T05:48:53;4.97;;;2.80;;
58992;SDS011;44782;0.000;0.000;2022-12-24T05:51:10;3.57;;;2.53;;
58992;SDS011;44782;0.000;0.000;2022-12-24T05:53:27;4.83;;;3.00;;
58992;SDS011;44782;0.000;0.000;2022-12-24T05:55:43;4.30;;;2.70;;
58992;SDS011;44782;0.000;0.000;2022-12-24T05:57:58;3.93;;;2.60;;
58992;SDS011;44782;0.000;0.000;2022-12-24T06:00:14;4.63;;;2.90;;
58992;SDS011;44782;0.000;0.000;2022-12-24T06:02:30;4.13;;;2.57;;
58992;SDS011;44782;0.000;0.000;2022-12-24T06:04:46;3.87;;;2.33;;
58992;SDS011;44782;0.000;0.000;2022-12-24T06:07:02;3.97;;;2.30;;
58992;SDS011;44782;0.000;0.000;2022-12-24T06:09:17;3.77;;;2.60;;
58992;SDS011;44782;0.000;0.000;2022-12-24T06:11:33;5.73;;;3.10;;
58992;SDS011;44782;0.000;0.000;2022-12-24T06:13:49;4.57;;;2.73;;
58992;SDS011;44782;0.000;0.000;2022-12-24T06:16:08;3.97;;;2.70;;
58992;SDS011;44782;0.000;0.000;2022-12-24T06:18:29;4.17;;;2.60;;
58992;SDS011;44782;0.000;0.000;2022-12-24T06:20:49;5.10;;;2.57;;
58992;SDS011;44782;0.000;0.000;2022-12-24T06:23:05;4.83;;;2.50;;
58992;SDS011;44782;0.000;0.000;2022-12-24T06:25:21;5.47;;;2.63;;
58992;SDS011;44782;0.000;0.000;2022-12-24T06:27:37;3.70;;;2.40;;
58992;SDS011;44782;0.000;0.000;2022-12-24T06:29:52;3.77;;;2.70;;
58992;SDS011;44782;0.000;0.000;2022-12-24T06:32:08;3.77;;;2.60;;
58992;SDS011;44782;0.000;0.000;2022-12-24T06:34:23;3.57;;;2.50;;
58992;SDS011;44782;0.000;0.000;2022-12-24T06:36:39;3.65;;;2.60;;
58992;SDS011;44782;0.000;0.000;2022-12-24T06:38:55;3.70;;;2.40;;
58992;SDS011;44782;0.000;0.000;2022-12-24T06:41:10;4.70;;;2.72;;
58992;SDS011;44782;0.000;0.000;2022-12-24T06:43:26;4.40;;;2.70;;
58992;SDS011;44782;0.000;0.000;2022-12-24T06:45:45;2.97;;;2.28;;
58992;SDS011;44782;0.000;0.000;2022-12-24T06:48:02;3.50;;;2.50;;
58992;SDS011;44782;0.000;0.000;2022-12-24T06:50:18;4.07;;;2.67;;
58992;SDS011;44782;0.000;0.000;2022-12-24T06:52:33;4.50;;;2.70;;
58992;SDS011;44782;0.000;0.000;2022-12-24T06:54:49;4.30;;;2.50;;
58992;SDS011;44782;0.000;0.000;2022-12-24T06:57:05;4.83;;;2.70;;
58992;SDS011;44782;0.000;0.000;2022-12-24T06:59:21;3.83;;;2.47;;
58992;SDS011;44782;0.000;0.000;2022-12-24T07:01:37;4.18;;;2.50;;
58992;SDS011;44782;0.000;0.000;2022-12-24T07:03:52;4.07;;;2.75;;
58992;SDS011;44782;0.000;0.000;2022-12-24T07:06:14;4.30;;;2.50;;
58992;SDS011;44782;0.000;0.000;2022-12-24T07:08:40;4.63;;;2.80;;
58992;SDS011;44782;0.000;0.000;2022-12-24T07:10:56;4.35;;;2.50;;
58992;SDS011;44782;0.000;0.000;2022-12-24T07:13:13;3.65;;;2.40;;
58992;SDS011;44782;0.000;0.000;2022-12-24T07:15:29;3.97;;;2.50;;
58992;SDS011;44782;0.000;0.000;2022-12-24T07:17:44;4.77;;;2.73;;
58992;SDS011;44782;0.000;0.000;2022-12-24T07:20:00;4.43;;;2.60;;
58992;SDS011;44782;0.000;0.000;2022-12-24T07:22:16;3.67;;;2.20;;
58992;SDS011;44782;0.000;0.000;2022-12-24T07:24:31;3.87;;;2.50;;
58992;SDS011;44782;0.000;0.000;2022-12-24T07:26:47;4.37;;;2.60;;
58992;SDS011;44782;0.000;0.000;2022-12-24T07:29:02;4.00;;;2.60;;
58992;SDS011;44782;0.000;0.000;2022-12-24T07:31:18;4.10;;;2.70;;
58992;SDS011;44782;0.000;0.000;2022-12-24T07:33:34;4.80;;;2.70;;
58992;SDS011;44782;0.000;0.000;2022-12-24T07:35:56;3.87;;;2.33;;
58992;SDS011;44782;0.000;0.000;2022-12-24T07:38:16;4.27;;;2.70;;
58992;SDS011;44782;0.000;0.000;2022-12-24T07:40:32;3.50;;;2.50;;
58992;SDS011;44782;0.000;0.000;2022-12-24T07:42:49;4.57;;;2.90;;
58992;SDS011;44782;0.000;0.000;2022-12-24T07:45:04;3.33;;;2.60;;
58992;SDS011;44782;0.000;0.000;2022-12-24T07:47:20;4.23;;;2.50;;
58992;SDS011;44782;0.000;0.000;2022-12-24T07:49:36;3.93;;;2.60;;
58992;SDS011;44782;0.000;0.000;2022-12-24T07:51:52;5.13;;;2.70;;
58992;SDS011;44782;0.000;0.000;2022-12-24T07:54:08;4.17;;;2.30;;
58992;SDS011;44782;0.000;0.000;2022-12-24T07:56:24;3.57;;;2.57;;
58992;SDS011;44782;0.000;0.000;2022-12-24T07:58:40;5.23;;;3.13;;
58992;SDS011;44782;0.000;0.000;2022-12-24T08:00:57;5.70;;;3.07;;
58992;SDS011;44782;0.000;0.000;2022-12-24T08:03:17;4.10;;;2.50;;
58992;SDS011;44782;0.000;0.000;2022-12-24T08:05:36;4.57;;;2.67;;
58992;SDS011;44782;0.000;0.000;2022-12-24T08:07:52;4.30;;;2.40;;
58992;SDS011;44782;0.000;0.000;2022-12-24T08:10:08;3.83;;;2.53;;
58992;SDS011;44782;0.000;0.000;2022-12-24T08:12:23;4.43;;;2.60;;
58992;SDS011;44782;0.000;0.000;2022-12-24T08:14:39;3.60;;;2.50;;
58992;SDS011;44782;0.000;0.000;2022-12-24T08:16:55;3.90;;;2.53;;
58992;SDS011;44782;0.000;0.000;2022-12-24T08:19:11;4.07;;;2.20;;
58992;SDS011;44782;0.000;0.000;2022-12-24T08:21:26;5.03;;;2.90;;
58992;SDS011;44782;0.000;0.000;2022-12-24T08:23:42;4.53;;;3.00;;
58992;SDS011;44782;0.000;0.000;2022-12-24T08:25:58;4.63;;;2.70;;
58992;SDS011;44782;0.000;0.000;2022-12-24T08:28:14;3.67;;;2.37;;
58992;SDS011;44782;0.000;0.000;2022-12-24T08:30:31;4.40;;;2.60;;
58992;SDS011;44782;0.000;0.000;2022-12-24T08:32:47;3.77;;;2.60;;
58992;SDS011;44782;0.000;0.000;2022-12-24T08:35:03;4.57;;;2.57;;
58992;SDS011;44782;0.000;0.000;2022-12-24T08:37:19;5.03;;;2.80;;
58992;SDS011;44782;0.000;0.000;2022-12-24T08:39:35;4.03;;;2.50;;
58992;SDS011;44782;0.000;0.000;2022-12-24T08:41:50;4.03;;;2.50;;
58992;SDS011;44782;0.000;0.000;2022-12-24T08:44:06;3.53;;;2.50;;
58992;SDS011;44782;0.000;0.000;2022-12-24T08:46:22;5.30;;;2.60;;
58992;SDS011;44782;0.000;0.000;2022-12-24T08:48:37;3.80;;;2.70;;
58992;SDS011;44782;0.000;0.000;2022-12-24T08:50:53;5.28;;;2.30;;
58992;SDS011;44782;0.000;0.000;2022-12-24T08:53:09;5.35;;;2.70;;
58992;SDS011;44782;0.000;0.000;2022-12-24T08:55:25;4.38;;;2.50;;
58992;SDS011;44782;0.000;0.000;2022-12-24T08:57:41;5.35;;;2.90;;
58992;SDS011;44782;0.000;0.000;2022-12-24T08:59:56;4.95;;;2.40;;
58992;SDS011;44782;0.000;0.000;2022-12-24T09:02:12;5.13;;;2.65;;
58992;SDS011;44782;0.000;0.000;2022-12-24T09:04:28;4.17;;;2.57;;
58992;SDS011;44782;0.000;0.000;2022-12-24T09:06:43;8.25;;;2.97;;
58992;SDS011;44782;0.000;0.000;2022-12-24T09:08:59;4.57;;;2.80;;
58992;SDS011;44782;0.000;0.000;2022-12-24T09:11:15;4.72;;;2.63;;
58992;SDS011;44782;0.000;0.000;2022-12-24T09:13:32;5.80;;;2.92;;
58992;SDS011;44782;0.000;0.000;2022-12-24T09:15:52;7.07;;;3.17;;
58992;SDS011;44782;0.000;0.000;2022-12-24T09:18:08;5.25;;;2.67;;
58992;SDS011;44782;0.000;0.000;2022-12-24T09:20:24;4.68;;;2.47;;
58992;SDS011;44782;0.000;0.000;2022-12-24T09:22:40;7.10;;;2.80;;
58992;SDS011;44782;0.000;0.000;2022-12-24T09:24:55;4.85;;;2.90;;
58992;SDS011;44782;0.000;0.000;2022-12-24T09:27:11;4.80;;;2.80;;
58992;SDS011;44782;0.000;0.000;2022-12-24T09:29:27;4.88;;;2.90;;
58992;SDS011;44782;0.000;0.000;2022-12-24T09:31:42;5.63;;;2.83;;
58992;SDS011;44782;0.000;0.000;2022-12-24T09:33:58;6.30;;;2.83;;
58992;SDS011;44782;0.000;0.000;2022-12-24T09:36:14;5.32;;;2.92;;
58992;SDS011;44782;0.000;0.000;2022-12-24T09:38:29;6.72;;;2.80;;
58992;SDS011;44782;0.000;0.000;2022-12-24T09:40:46;4.78;;;2.70;;
58992;SDS011;44782;0.000;0.000;2022-12-24T09:43:10;7.22;;;3.08;;
58992;SDS011;44782;0.000;0.000;2022-12-24T09:45:36;6.20;;;2.63;;
58992;SDS011;44782;0.000;0.000;2022-12-24T09:48:08;4.50;;;2.40;;
58992;SDS011;44782;0.000;0.000;2022-12-24T09:50:41;4.88;;;2.50;;
58992;SDS011;44782;0.000;0.000;2022-12-24T09:53:16;4.40;;;2.50;;
58992;SDS011;44782;0.000;0.000;2022-12-24T09:55:33;3.47;;;2.47;;
58992;SDS011;44782;0.000;0.000;2022-12-24T09:57:54;4.20;;;2.40;;
58992;SDS011;44782;0.000;0.000;2022-12-24T10:00:17;4.90;;;2.63;;
58992;SDS011;44782;0.000;0.000;2022-12-24T10:02:39;5.47;;;2.58;;
58992;SDS011;44782;0.000;0.000;2022-12-24T10:04:55;4.90;;;2.53;;
58992;SDS011;44782;0.000;0.000;2022-12-24T10:12:47;5.17;;;2.43;;
58992;SDS011;44782;0.000;0.000;2022-12-24T10:15:29;4.78;;;2.63;;
58992;SDS011;44782;0.000;0.000;2022-12-24T10:23:37;3.97;;;2.40;;
58992;SDS011;44782;0.000;0.000;2022-12-24T10:26:19;3.83;;;2.20;;
58992;SDS011;44782;0.000;0.000;2022-12-24T10:28:55;3.53;;;2.20;;
58992;SDS011;44782;0.000;0.000;2022-12-24T10:31:13;4.63;;;2.50;;
58992;SDS011;44782;0.000;0.000;2022-12-24T10:33:52;4.80;;;2.53;;
58992;SDS011;44782;0.000;0.000;2022-12-24T10:36:13;5.27;;;2.63;;
58992;SDS011;44782;0.000;0.000;2022-12-24T10:38:32;5.73;;;2.70;;
58992;SDS011;44782;0.000;0.000;2022-12-24T10:40:49;5.63;;;2.50;;
58992;SDS011;44782;0.000;0.000;2022-12-24T10:43:27;3.90;;;2.07;;
58992;SDS011;44782;0.000;0.000;2022-12-24T10:45:47;4.00;;;2.07;;
58992;SDS011;44782;0.000;0.000;2022-12-24T10:48:08;6.90;;;2.60;;
58992;SDS011;44782;0.000;0.000;2022-12-24T10:50:31;6.30;;;2.70;;
58992;SDS011;44782;0.000;0.000;2022-12-24T10:55:42;4.80;;;2.40;;
58992;SDS011;44782;0.000;0.000;2022-12-24T10:58:12;5.57;;;2.40;;
58992;SDS011;44782;0.000;0.000;2022-12-24T11:00:32;7.53;;;2.27;;
58992;SDS011;44782;0.000;0.000;2022-12-24T11:03:04;4.33;;;2.20;;
58992;SDS011;44782;0.000;0.000;2022-12-24T11:05:27;8.47;;;2.27;;
58992;SDS011;44782;0.000;0.000;2022-12-24T11:07:49;5.67;;;2.27;;
58992;SDS011;44782;0.000;0.000;2022-12-24T11:10:22;6.63;;;2.50;;
58992;SDS011;44782;0.000;0.000;2022-12-24T11:12:38;9.17;;;2.67;;
58992;SDS011;44782;0.000;0.000;2022-12-24T11:17:38;6.83;;;2.17;;
58992;SDS011;44782;0.000;0.000;2022-12-24T11:19:54;7.83;;;2.30;;
58992;SDS011;44782;0.000;0.000;2022-12-24T11:22:23;7.33;;;2.37;;
58992;SDS011;44782;0.000;0.000;2022-12-24T11:24:40;10.27;;;2.50;;
58992;SDS011;44782;0.000;0.000;2022-12-24T11:29:42;8.73;;;2.07;;
58992;SDS011;44782;0.000;0.000;2022-12-24T11:34:48;11.87;;;2.50;;
58992;SDS011;44782;0.000;0.000;2022-12-24T11:37:20;8.13;;;2.50;;
58992;SDS011;44782;0.000;0.000;2022-12-24T11:39:38;7.43;;;2.43;;
58992;SDS011;44782;0.000;0.000;2022-12-24T11:41:55;5.43;;;2.37;;
58992;SDS011;44782;0.000;0.000;2022-12-24T11:44:11;6.40;;;2.63;;
58992;SDS011;44782;0.000;0.000;2022-12-24T11:48:42;5.73;;;2.40;;
58992;SDS011;44782;0.000;0.000;2022-12-24T11:50:59;4.10;;;2.20;;
58992;SDS011;44782;0.000;0.000;2022-12-24T11:53:17;4.83;;;2.60;;
58992;SDS011;44782;0.000;0.000;2022-12-24T11:55:58;10.23;;;2.70;;
58992;SDS011;44782;0.000;0.000;2022-12-24T11:58:40;5.83;;;2.40;;
58992;SDS011;44782;0.000;0.000;2022-12-24T12:01:02;5.33;;;2.43;;
58992;SDS011;44782;0.000;0.000;2022-12-24T12:05:47;4.90;;;2.40;;
58992;SDS011;44782;0.000;0.000;2022-12-24T12:08:12;6.47;;;2.20;;
58992;SDS011;44782;0.000;0.000;2022-12-24T12:10:31;8.07;;;2.50;;
58992;SDS011;44782;0.000;0.000;2022-12-24T12:15:28;5.50;;;2.40;;
58992;SDS011;44782;0.000;0.000;2022-12-24T12:18:35;6.30;;;2.17;;
58992;SDS011;44782;0.000;0.000;2022-12-24T12:23:34;4.77;;;2.30;;
58992;SDS011;44782;0.000;0.000;2022-12-24T12:25:53;6.20;;;2.37;;
58992;SDS011;44782;0.000;0.000;2022-12-24T12:28:17;5.33;;;2.83;;
58992;SDS011;44782;0.000;0.000;2022-12-24T12:30:58;7.13;;;2.70;;
58992;SDS011;44782;0.000;0.000;2022-12-24T12:33:25;5.50;;;2.60;;
58992;SDS011;44782;0.000;0.000;2022-12-24T12:35:50;8.03;;;2.60;;
58992;SDS011;44782;0.000;0.000;2022-12-24T12:38:08;5.83;;;2.33;;
58992;SDS011;44782;0.000;0.000;2022-12-24T12:40:31;4.33;;;2.43;;
58992;SDS011;44782;0.000;0.000;2022-12-24T12:42:57;6.80;;;2.90;;
58992;SDS011;44782;0.000;0.000;2022-12-24T12:45:38;8.97;;;2.93;;
58992;SDS011;44782;0.000;0.000;2022-12-24T12:57:36;8.23;;;2.53;;
58992;SDS011;44782;0.000;0.000;2022-12-24T12:59:56;5.37;;;2.67;;
58992;SDS011;44782;0.000;0.000;2022-12-24T13:02:41;6.97;;;2.80;;
58992;SDS011;44782;0.000;0.000;2022-12-24T13:10:34;4.07;;;2.40;;
58992;SDS011;44782;0.000;0.000;2022-12-24T13:20:47;3.50;;;2.43;;
58992;SDS011;44782;0.000;0.000;2022-12-24T13:23:11;6.57;;;2.83;;
58992;SDS011;44782;0.000;0.000;2022-12-24T13:25:34;5.97;;;2.90;;
58992;SDS011;44782;0.000;0.000;2022-12-24T13:30:39;4.83;;;2.60;;
58992;SDS011;44782;0.000;0.000;2022-12-24T13:32:55;7.27;;;2.60;;
58992;SDS011;44782;0.000;0.000;2022-12-24T13:37:35;5.77;;;2.30;;
58992;SDS011;44782;0.000;0.000;2022-12-24T13:47:43;4.17;;;2.53;;
58992;SDS011;44782;0.000;0.000;2022-12-24T13:50:11;5.97;;;2.70;;
58992;SDS011;44782;0.000;0.000;2022-12-24T13:52:36;9.13;;;2.60;;
58992;SDS011;44782;0.000;0.000;2022-12-24T13:57:39;7.70;;;2.80;;
58992;SDS011;44782;0.000;0.000;2022-12-24T14:02:27;14.47;;;2.93;;
58992;SDS011;44782;0.000;0.000;2022-12-24T14:04:48;10.93;;;2.93;;
58992;SDS011;44782;0.000;0.000;2022-12-24T14:07:05;11.57;;;2.60;;
58992;SDS011;44782;0.000;0.000;2022-12-24T14:09:23;10.57;;;2.80;;
58992;SDS011;44782;0.000;0.000;2022-12-24T14:14:25;12.87;;;3.50;;
58992;SDS011;44782;0.000;0.000;2022-12-24T14:16:48;10.40;;;2.67;;
58992;SDS011;44782;0.000;0.000;2022-12-24T14:19:12;5.53;;;2.57;;
58992;SDS011;44782;0.000;0.000;2022-12-24T14:21:34;16.53;;;3.20;;
58992;SDS011;44782;0.000;0.000;2022-12-24T14:23:53;12.70;;;2.97;;
58992;SDS011;44782;0.000;0.000;2022-12-24T14:26:13;8.03;;;2.37;;
58992;SDS011;44782;0.000;0.000;2022-12-24T14:28:33;8.47;;;2.70;;
58992;SDS011;44782;0.000;0.000;2022-12-24T14:31:02;8.63;;;2.63;;
58992;SDS011;44782;0.000;0.000;2022-12-24T14:33:48;8.27;;;2.67;;
58992;SDS011;44782;0.000;0.000;2022-12-24T14:36:04;14.10;;;3.10;;
58992;SDS011;44782;0.000;0.000;2022-12-24T14:38:20;12.50;;;2.90;;
58992;SDS011;44782;0.000;0.000;2022-12-24T14:40:40;13.63;;;3.20;;
58992;SDS011;44782;0.000;0.000;2022-12-24T14:43:10;9.90;;;2.60;;
58992;SDS011;44782;0.000;0.000;2022-12-24T14:52:55;8.53;;;2.60;;
58992;SDS011;44782;0.000;0.000;2022-12-24T14:55:29;10.77;;;2.53;;
58992;SDS011;44782;0.000;0.000;2022-12-24T14:57:44;9.20;;;2.63;;
58992;SDS011;44782;0.000;0.000;2022-12-24T15:00:00;7.17;;;2.40;;
58992;SDS011;44782;0.000;0.000;2022-12-24T15:02:42;9.10;;;2.70;;
58992;SDS011;44782;0.000;0.000;2022-12-24T15:05:09;9.07;;;2.70;;
58992;SDS011;44782;0.000;0.000;2022-12-24T15:07:36;9.07;;;2.83;;
58992;SDS011;44782;0.000;0.000;2022-12-24T15:09:56;9.23;;;2.70;;
58992;SDS011;44782;0.000;0.000;2022-12-24T15:12:12;7.17;;;2.60;;
58992;SDS011;44782;0.000;0.000;2022-12-24T15:14:28;6.73;;;2.60;;
58992;SDS011;44782;0.000;0.000;2022-12-24T15:16:57;13.17;;;2.60;;
58992;SDS011;44782;0.000;0.000;2022-12-24T15:19:25;6.87;;;2.20;;
58992;SDS011;44782;0.000;0.000;2022-12-24T15:21:46;5.80;;;2.50;;
58992;SDS011;44782;0.000;0.000;2022-12-24T15:24:02;9.03;;;2.40;;
58992;SDS011;44782;0.000;0.000;2022-12-24T15:26:23;6.50;;;2.60;;
58992;SDS011;44782;0.000;0.000;2022-12-24T15:28:43;7.33;;;2.50;;
58992;SDS011;44782;0.000;0.000;2022-12-24T15:31:12;4.37;;;2.40;;
58992;SDS011;44782;0.000;0.000;2022-12-24T15:33:36;8.20;;;2.37;;
58992;SDS011;44782;0.000;0.000;2022-12-24T15:35:53;6.77;;;2.30;;
58992;SDS011;44782;0.000;0.000;2022-12-24T15:38:30;5.73;;;2.30;;
58992;SDS011;44782;0.000;0.000;2022-12-24T15:40:54;7.17;;;2.70;;
58992;SDS011;44782;0.000;0.000;2022-12-24T15:43:11;5.10;;;2.30;;
58992;SDS011;44782;0.000;0.000;2022-12-24T15:45:27;6.97;;;2.50;;
58992;SDS011;44782;0.000;0.000;2022-12-24T15:47:55;5.33;;;2.33;;
58992;SDS011;44782;0.000;0.000;2022-12-24T15:52:44;4.53;;;2.50;;
58992;SDS011;44782;0.000;0.000;2022-12-24T15:55:00;5.80;;;2.57;;
58992;SDS011;44782;0.000;0.000;2022-12-24T15:57:50;5.50;;;2.40;;
58992;SDS011;44782;0.000;0.000;2022-12-24T15:59:59;6.73;;;2.57;;
58992;SDS011;44782;0.000;0.000;2022-12-24T16:02:17;8.10;;;2.90;;